Repto La Esperanza, Puerto Rico
Current Conditions -  °F | °C
As of 3:56 AM on Tuesday 27 Jan 2015 (Local Time) from TJSJ Reporting Station
Few Clouds Few Clouds  
Wind Chill: 76°   Ceiling: Unl
Heat Index: 76°   Visibility: 10mi
Dew Point: 71°   Wind: 0mph
Humidity: 85%   Direction: NA
Pressure: 29.95"   Gusts: NA
Location:  18.3866°N, 66.1135°W
Report Text: TJSJ 270756Z 00000KT 10SM FEW070 24/22 A2995 RMK AO2 SLP141 T02440217
Loading
Personal Weather Stations






























Interactive Weather Map New forecast layout! Learn more

10-Day Weather Forecast

Advertisements
Track Severe Weather on mobile